createdAt,value
2018-07-26T00:00:31.920Z,0.00
2018-07-26T00:01:31.964Z,0.00
2018-07-26T00:02:31.995Z,0.00
2018-07-26T00:03:32.008Z,0.00
2018-07-26T00:04:32.040Z,0.00
2018-07-26T00:05:32.055Z,0.00
2018-07-26T00:06:32.114Z,0.00
2018-07-26T00:07:32.119Z,0.00
2018-07-26T00:08:32.150Z,0.00
2018-07-26T00:09:32.206Z,0.00
2018-07-26T00:10:32.209Z,0.00
2018-07-26T00:11:32.234Z,0.00
2018-07-26T00:12:32.269Z,0.00
2018-07-26T00:13:32.300Z,0.00
2018-07-26T00:14:32.328Z,0.00
2018-07-26T00:15:32.358Z,0.00
2018-07-26T00:16:32.391Z,0.00
2018-07-26T00:17:32.417Z,0.00
2018-07-26T00:18:32.445Z,0.00
2018-07-26T00:19:32.486Z,0.00
2018-07-26T00:20:32.516Z,0.00
2018-07-26T00:21:32.575Z,0.00
2018-07-26T00:22:32.567Z,0.00
2018-07-26T00:23:32.607Z,0.00
2018-07-26T00:24:32.628Z,0.00
2018-07-26T00:25:32.655Z,0.00
2018-07-26T00:26:32.695Z,0.00
2018-07-26T00:27:32.764Z,0.00
2018-07-26T00:28:32.744Z,0.00
2018-07-26T00:29:32.775Z,0.00
2018-07-26T00:30:32.802Z,0.00
2018-07-26T00:31:32.833Z,0.00
2018-07-26T00:32:32.864Z,0.00
2018-07-26T00:33:32.896Z,0.00
2018-07-26T00:34:32.924Z,0.00
2018-07-26T00:35:32.947Z,0.00
2018-07-26T00:36:32.980Z,0.00
2018-07-26T00:37:33.017Z,0.00
2018-07-26T00:38:33.138Z,0.00
2018-07-26T00:39:33.073Z,0.00
2018-07-26T00:40:33.100Z,0.00
2018-07-26T00:41:33.129Z,0.00
2018-07-26T00:42:33.161Z,0.00
2018-07-26T00:43:33.196Z,0.00
2018-07-26T00:44:33.223Z,0.00
2018-07-26T00:45:33.242Z,0.00
2018-07-26T00:46:33.281Z,0.00
2018-07-26T00:47:33.309Z,0.00
2018-07-26T00:48:33.342Z,0.00
2018-07-26T00:49:33.366Z,0.00
2018-07-26T00:50:33.401Z,0.00
2018-07-26T00:51:33.426Z,0.00
2018-07-26T00:52:33.460Z,0.00
2018-07-26T00:53:33.495Z,0.00
2018-07-26T00:54:33.516Z,0.00
2018-07-26T00:55:33.547Z,0.00
2018-07-26T00:56:33.580Z,0.00
2018-07-26T00:57:33.604Z,0.00
2018-07-26T00:58:33.630Z,0.00
2018-07-26T00:59:33.668Z,0.00
2018-07-26T01:00:33.695Z,0.00
2018-07-26T01:01:33.722Z,0.00
2018-07-26T01:02:33.762Z,0.00
2018-07-26T01:03:33.785Z,0.00
2018-07-26T01:04:33.805Z,0.00
2018-07-26T01:05:33.852Z,0.00
2018-07-26T01:06:33.861Z,0.00
2018-07-26T01:07:33.907Z,0.00
2018-07-26T01:08:33.932Z,0.00
2018-07-26T01:09:33.962Z,0.00
2018-07-26T01:10:33.985Z,0.00
2018-07-26T01:11:34.016Z,0.00
2018-07-26T01:12:34.053Z,0.00
2018-07-26T01:13:34.080Z,0.00
2018-07-26T01:14:34.105Z,0.00
2018-07-26T01:15:34.134Z,0.00
2018-07-26T01:16:34.166Z,0.00
2018-07-26T01:17:34.201Z,0.00
2018-07-26T01:18:34.220Z,0.00
2018-07-26T01:19:34.250Z,0.00
2018-07-26T01:20:34.285Z,0.00
2018-07-26T01:21:34.313Z,0.00
2018-07-26T01:22:34.335Z,0.00
2018-07-26T01:23:34.371Z,0.00
2018-07-26T01:24:34.397Z,0.00
2018-07-26T01:25:34.423Z,0.00
2018-07-26T01:26:34.460Z,0.00
2018-07-26T01:27:34.489Z,0.00
2018-07-26T01:28:34.514Z,0.00
2018-07-26T01:29:34.538Z,0.00
2018-07-26T01:30:34.583Z,0.00
2018-07-26T01:31:34.618Z,0.00
2018-07-26T01:32:34.633Z,0.00
2018-07-26T01:33:34.660Z,0.00
2018-07-26T01:34:34.691Z,0.00
2018-07-26T01:35:34.727Z,0.00
2018-07-26T01:36:34.748Z,0.00
2018-07-26T01:37:34.778Z,0.00
2018-07-26T01:38:34.806Z,0.00
2018-07-26T01:39:34.830Z,0.00
2018-07-26T01:40:34.872Z,0.00
2018-07-26T01:41:34.895Z,0.00
2018-07-26T01:42:34.916Z,0.00
2018-07-26T01:43:34.953Z,0.00
2018-07-26T01:44:34.985Z,0.00
2018-07-26T01:45:35.012Z,0.00
2018-07-26T01:46:35.040Z,0.00
2018-07-26T01:47:35.068Z,0.00
2018-07-26T01:48:35.135Z,0.00
2018-07-26T01:49:35.122Z,0.00
2018-07-26T01:50:35.162Z,0.00
2018-07-26T01:51:35.181Z,0.00
2018-07-26T01:52:35.217Z,0.00
2018-07-26T01:53:35.237Z,0.00
2018-07-26T01:54:35.274Z,0.00
2018-07-26T01:55:35.301Z,0.00
2018-07-26T01:56:35.327Z,0.00
2018-07-26T01:57:35.356Z,0.00
2018-07-26T01:58:35.394Z,0.00
2018-07-26T01:59:35.416Z,0.00
2018-07-26T02:00:35.449Z,0.00
2018-07-26T02:01:35.487Z,0.00
2018-07-26T02:02:35.503Z,0.00
2018-07-26T02:03:35.532Z,0.00
2018-07-26T02:04:35.566Z,0.00
2018-07-26T02:05:35.591Z,0.00
2018-07-26T02:06:35.618Z,0.00
2018-07-26T02:07:35.659Z,0.00
2018-07-26T02:08:35.685Z,0.00
2018-07-26T02:09:35.722Z,0.00
2018-07-26T02:10:35.736Z,0.00
2018-07-26T02:11:35.769Z,0.00
2018-07-26T02:12:35.809Z,0.00
2018-07-26T02:13:35.822Z,0.00
2018-07-26T02:14:35.858Z,0.00
2018-07-26T02:15:35.874Z,0.00
2018-07-26T02:16:35.914Z,0.00
2018-07-26T02:17:35.942Z,0.00
2018-07-26T02:18:35.970Z,0.00
2018-07-26T02:19:36.003Z,0.00
2018-07-26T02:20:36.019Z,0.00
2018-07-26T02:21:36.058Z,0.00
2018-07-26T02:22:36.086Z,0.00
2018-07-26T02:23:36.113Z,0.00
2018-07-26T02:24:36.154Z,0.00
2018-07-26T02:25:36.167Z,0.00
2018-07-26T02:26:36.202Z,0.00
2018-07-26T02:27:36.229Z,0.00
2018-07-26T02:28:36.258Z,0.00
2018-07-26T02:29:36.285Z,0.00
2018-07-26T02:30:36.319Z,0.00
2018-07-26T02:31:36.342Z,0.00
2018-07-26T02:32:36.367Z,0.00
2018-07-26T02:33:36.403Z,0.00
2018-07-26T02:34:36.426Z,0.00
2018-07-26T02:35:36.458Z,0.00
2018-07-26T02:36:36.496Z,0.00
2018-07-26T02:37:36.516Z,0.00
2018-07-26T02:38:36.549Z,0.00
2018-07-26T02:39:36.571Z,0.00
2018-07-26T02:40:36.607Z,0.00
2018-07-26T02:41:36.634Z,0.00
2018-07-26T02:42:36.656Z,0.00
2018-07-26T02:43:36.692Z,0.00
2018-07-26T02:44:36.717Z,0.00
2018-07-26T02:45:36.773Z,0.00
2018-07-26T02:46:36.780Z,0.00
2018-07-26T02:47:36.815Z,0.00
2018-07-26T02:48:36.824Z,0.00
2018-07-26T02:49:36.864Z,0.00
2018-07-26T02:50:36.891Z,0.00
2018-07-26T02:51:36.935Z,0.00
2018-07-26T02:52:36.947Z,0.00
2018-07-26T02:53:36.974Z,0.00
2018-07-26T02:54:37.005Z,0.00
2018-07-26T02:55:37.041Z,0.00
2018-07-26T02:56:37.066Z,0.00
2018-07-26T02:57:37.093Z,0.00
2018-07-26T02:58:37.120Z,0.00
2018-07-26T02:59:37.152Z,0.00
2018-07-26T03:00:37.169Z,0.00
2018-07-26T03:01:37.207Z,0.00
2018-07-26T03:02:37.232Z,0.00
2018-07-26T03:03:37.261Z,0.00
2018-07-26T03:04:37.290Z,0.00
2018-07-26T03:05:37.327Z,0.00
2018-07-26T03:06:37.356Z,0.00
2018-07-26T03:07:37.378Z,0.00
2018-07-26T03:08:37.407Z,0.00
2018-07-26T03:09:37.437Z,0.00
2018-07-26T03:10:37.465Z,0.00
2018-07-26T03:11:37.491Z,0.00
2018-07-26T03:12:37.526Z,0.00
2018-07-26T03:13:37.548Z,0.00
2018-07-26T03:14:37.574Z,0.00
2018-07-26T03:15:37.608Z,0.00
2018-07-26T03:16:37.635Z,0.00
2018-07-26T03:17:37.666Z,0.00
2018-07-26T03:18:37.691Z,0.00
2018-07-26T03:20:37.754Z,0.00
2018-07-26T03:21:37.779Z,0.00
2018-07-26T03:22:37.808Z,0.00
2018-07-26T03:23:37.833Z,0.00
2018-07-26T03:24:37.862Z,0.00
2018-07-26T03:25:37.888Z,0.00
2018-07-26T03:26:37.935Z,0.00
2018-07-26T03:27:37.947Z,0.00
2018-07-26T03:28:37.972Z,0.00
2018-07-26T03:29:38.006Z,0.00
2018-07-26T03:30:38.031Z,0.00
2018-07-26T03:31:38.069Z,0.00
2018-07-26T03:32:38.088Z,0.00
2018-07-26T03:33:38.120Z,0.00
2018-07-26T03:34:38.146Z,0.00
2018-07-26T03:35:38.177Z,0.00
2018-07-26T03:36:38.203Z,0.00
2018-07-26T03:37:38.232Z,0.00
2018-07-26T03:38:38.263Z,4.00
2018-07-26T03:39:38.286Z,4.00
2018-07-26T03:40:38.325Z,0.00
2018-07-26T03:41:38.344Z,0.00
2018-07-26T03:42:38.373Z,0.00
2018-07-26T03:43:38.441Z,4.00
2018-07-26T03:44:38.462Z,4.00
2018-07-26T03:45:38.455Z,4.00
2018-07-26T03:46:38.485Z,0.00
2018-07-26T03:47:38.514Z,0.00
2018-07-26T03:48:38.542Z,4.00
2018-07-26T03:49:38.580Z,4.00
2018-07-26T03:50:38.595Z,4.00
2018-07-26T03:51:38.641Z,4.00
2018-07-26T03:52:38.705Z,4.00
2018-07-26T03:53:38.701Z,4.00
2018-07-26T03:54:38.723Z,8.00
2018-07-26T03:55:38.739Z,4.00
2018-07-26T03:56:38.766Z,4.00
2018-07-26T03:57:38.799Z,8.00
2018-07-26T03:58:38.829Z,4.00
2018-07-26T03:59:38.854Z,8.00
2018-07-26T04:00:38.887Z,8.00
2018-07-26T04:01:38.916Z,8.00
2018-07-26T04:02:38.938Z,8.00
2018-07-26T04:03:38.960Z,12.00
2018-07-26T04:04:38.991Z,8.00
2018-07-26T04:05:39.025Z,12.00
2018-07-26T04:06:39.058Z,8.00
2018-07-26T04:07:39.083Z,12.00
2018-07-26T04:08:39.114Z,12.00
2018-07-26T04:09:39.142Z,12.00
2018-07-26T04:10:39.161Z,12.00
2018-07-26T04:11:39.191Z,12.00
2018-07-26T04:12:39.216Z,12.00
2018-07-26T04:13:39.262Z,16.00
2018-07-26T04:14:39.275Z,12.00
2018-07-26T04:15:39.310Z,16.00
2018-07-26T04:16:39.333Z,12.00
2018-07-26T04:17:39.359Z,16.00
2018-07-26T04:18:39.387Z,20.00
2018-07-26T04:19:39.414Z,16.00
2018-07-26T04:20:39.448Z,20.00
2018-07-26T04:21:39.476Z,16.00
2018-07-26T04:22:39.511Z,20.00
2018-07-26T04:23:39.522Z,16.00
2018-07-26T04:24:39.556Z,20.00
2018-07-26T04:25:39.591Z,20.00
2018-07-26T04:26:39.610Z,20.00
2018-07-26T04:27:39.644Z,24.00
2018-07-26T04:28:39.671Z,20.00
2018-07-26T04:29:39.698Z,24.00
2018-07-26T04:30:39.730Z,24.00
2018-07-26T04:32:39.781Z,24.00
2018-07-26T04:33:39.807Z,24.00
2018-07-26T04:34:39.842Z,24.00
2018-07-26T04:35:39.866Z,28.00
2018-07-26T04:36:39.902Z,24.00
2018-07-26T04:37:39.915Z,28.00
2018-07-26T04:38:39.947Z,28.00
2018-07-26T04:39:39.992Z,24.00
2018-07-26T04:40:40.007Z,28.00
2018-07-26T04:41:40.037Z,28.00
2018-07-26T04:42:40.056Z,32.00
2018-07-26T04:43:40.092Z,28.00
2018-07-26T04:44:40.119Z,28.00
2018-07-26T04:45:40.147Z,32.00
2018-07-26T04:46:40.180Z,32.00
2018-07-26T04:47:40.211Z,32.00
2018-07-26T04:48:40.237Z,36.00
2018-07-26T04:49:40.269Z,36.00
2018-07-26T04:50:40.279Z,36.00
2018-07-26T04:51:40.328Z,36.00
2018-07-26T04:52:40.365Z,36.00
2018-07-26T04:53:40.366Z,36.00
2018-07-26T04:54:40.439Z,36.00
2018-07-26T04:55:40.425Z,36.00
2018-07-26T04:56:40.453Z,36.00
2018-07-26T04:57:40.498Z,36.00
2018-07-26T04:58:40.520Z,36.00
2018-07-26T04:59:40.572Z,40.00
2018-07-26T05:00:40.562Z,40.00
2018-07-26T05:01:40.592Z,40.00
2018-07-26T05:02:40.625Z,40.00
2018-07-26T05:03:40.652Z,44.00
2018-07-26T05:04:40.681Z,44.00
2018-07-26T05:05:40.708Z,44.00
2018-07-26T05:06:40.734Z,44.00
2018-07-26T05:07:40.773Z,44.00
2018-07-26T05:08:40.796Z,44.00
2018-07-26T05:09:40.819Z,44.00
2018-07-26T05:10:40.848Z,48.00
2018-07-26T05:11:40.879Z,44.00
2018-07-26T05:12:40.910Z,48.00
2018-07-26T05:13:40.943Z,48.00
2018-07-26T05:14:40.954Z,48.00
2018-07-26T05:15:40.989Z,52.00
2018-07-26T05:16:41.018Z,48.00
2018-07-26T05:17:41.051Z,52.00
2018-07-26T05:18:41.073Z,52.00
2018-07-26T05:19:41.098Z,52.00
2018-07-26T05:20:41.146Z,52.00
2018-07-26T05:21:41.164Z,56.00
2018-07-26T05:22:41.183Z,56.00
2018-07-26T05:23:41.214Z,56.00
2018-07-26T05:24:41.243Z,60.00
2018-07-26T05:25:41.266Z,56.00
2018-07-26T05:26:41.295Z,60.00
2018-07-26T05:27:41.340Z,60.00
2018-07-26T05:28:41.351Z,60.00
2018-07-26T05:29:41.380Z,60.00
2018-07-26T05:30:41.406Z,64.00
2018-07-26T05:31:41.435Z,64.00
2018-07-26T05:32:41.464Z,64.00
2018-07-26T05:33:41.501Z,64.00
2018-07-26T05:34:41.523Z,68.00
2018-07-26T05:35:41.557Z,68.00
2018-07-26T05:36:41.587Z,68.00
2018-07-26T05:37:41.654Z,68.00
2018-07-26T05:38:41.640Z,68.00
2018-07-26T05:39:41.665Z,72.00
2018-07-26T05:40:41.693Z,72.00
2018-07-26T05:41:41.719Z,72.00
2018-07-26T05:42:41.739Z,76.00
2018-07-26T05:43:41.782Z,76.00
2018-07-26T05:44:41.801Z,76.00
2018-07-26T05:45:41.850Z,80.00
2018-07-26T05:46:41.869Z,76.00
2018-07-26T05:47:41.892Z,80.00
2018-07-26T05:48:41.914Z,80.00
2018-07-26T05:49:41.940Z,80.00
2018-07-26T05:50:41.966Z,84.00
2018-07-26T05:51:42.005Z,84.00
2018-07-26T05:52:42.026Z,84.00
2018-07-26T05:53:42.051Z,84.00
2018-07-26T05:54:42.080Z,88.00
2018-07-26T05:55:42.104Z,88.00
2018-07-26T05:56:42.135Z,88.00
2018-07-26T05:57:42.176Z,92.00
2018-07-26T05:58:42.205Z,92.00
2018-07-26T05:59:42.215Z,88.00
2018-07-26T06:00:42.257Z,92.00
2018-07-26T06:01:42.281Z,92.00
2018-07-26T06:02:42.311Z,92.00
2018-07-26T06:03:42.338Z,92.00
2018-07-26T06:04:42.366Z,92.00
2018-07-26T06:05:42.387Z,96.00
2018-07-26T06:06:42.425Z,96.00
2018-07-26T06:07:42.463Z,100.00
2018-07-26T06:08:42.478Z,100.00
2018-07-26T06:09:42.572Z,96.00
2018-07-26T06:10:42.536Z,100.00
2018-07-26T06:11:42.568Z,104.00
2018-07-26T06:12:42.585Z,104.00
2018-07-26T06:13:42.620Z,104.00
2018-07-26T06:14:42.649Z,104.00
2018-07-26T06:15:42.678Z,104.00
2018-07-26T06:16:42.716Z,108.00
2018-07-26T06:17:42.745Z,108.00
2018-07-26T06:18:42.767Z,108.00
2018-07-26T06:19:42.788Z,104.00
2018-07-26T06:20:42.888Z,108.00
2018-07-26T06:21:42.864Z,108.00
2018-07-26T06:22:42.877Z,108.00
2018-07-26T06:23:42.916Z,108.00
2018-07-26T06:24:42.936Z,108.00
2018-07-26T06:25:42.964Z,108.00
2018-07-26T06:26:42.997Z,112.00
2018-07-26T06:27:43.105Z,112.00
2018-07-26T06:28:43.051Z,112.00
2018-07-26T06:29:43.078Z,112.00
2018-07-26T06:30:43.106Z,112.00
2018-07-26T06:31:43.140Z,112.00
2018-07-26T06:32:43.167Z,112.00
2018-07-26T06:33:43.239Z,108.00
2018-07-26T06:34:43.225Z,112.00
2018-07-26T06:35:43.255Z,112.00
2018-07-26T06:36:43.281Z,112.00
2018-07-26T06:37:43.319Z,112.00
2018-07-26T06:38:43.346Z,112.00
2018-07-26T06:39:43.365Z,112.00
2018-07-26T06:40:43.392Z,112.00
2018-07-26T06:41:43.420Z,112.00
2018-07-26T06:42:43.482Z,112.00
2018-07-26T06:43:43.483Z,116.00
2018-07-26T06:44:43.513Z,116.00
2018-07-26T06:45:43.546Z,112.00
2018-07-26T06:46:43.571Z,116.00
2018-07-26T06:47:43.599Z,116.00
2018-07-26T06:48:43.622Z,120.00
2018-07-26T06:49:43.664Z,120.00
2018-07-26T06:50:43.701Z,124.00
2018-07-26T06:51:43.714Z,128.00
2018-07-26T06:52:43.761Z,132.00
2018-07-26T06:53:43.781Z,140.00
2018-07-26T06:54:43.809Z,144.00
2018-07-26T06:55:43.837Z,152.00
2018-07-26T06:56:43.859Z,160.00
2018-07-26T06:57:43.893Z,164.00
2018-07-26T06:58:43.917Z,180.00
2018-07-26T06:59:43.946Z,196.00
2018-07-26T07:00:44.010Z,216.00
2018-07-26T07:01:44.010Z,236.00
2018-07-26T07:02:44.036Z,248.00
2018-07-26T07:03:44.061Z,260.00
2018-07-26T07:04:44.089Z,284.00
2018-07-26T07:05:44.145Z,292.00
2018-07-26T07:06:44.152Z,300.00
2018-07-26T07:07:44.184Z,304.00
2018-07-26T07:08:44.211Z,312.00
2018-07-26T07:09:44.253Z,324.00
2018-07-26T07:10:44.268Z,312.00
2018-07-26T07:11:44.301Z,312.00
2018-07-26T07:12:44.326Z,332.00
2018-07-26T07:13:44.357Z,300.00
2018-07-26T07:14:44.387Z,292.00
2018-07-26T07:15:44.436Z,304.00
2018-07-26T07:16:44.453Z,292.00
2018-07-26T07:17:44.500Z,272.00
2018-07-26T07:18:44.512Z,264.00
2018-07-26T07:19:44.541Z,256.00
2018-07-26T07:20:44.563Z,244.00
2018-07-26T07:21:44.589Z,236.00
2018-07-26T07:22:44.624Z,212.00
2018-07-26T07:23:44.646Z,204.00
2018-07-26T07:24:44.678Z,192.00
2018-07-26T07:25:44.712Z,176.00
2018-07-26T07:26:44.741Z,172.00
2018-07-26T07:27:44.775Z,172.00
2018-07-26T07:28:44.790Z,180.00
2018-07-26T07:29:44.826Z,168.00
2018-07-26T07:30:44.860Z,160.00
2018-07-26T07:31:44.888Z,160.00
2018-07-26T07:32:44.918Z,152.00
2018-07-26T07:33:44.948Z,152.00
2018-07-26T07:34:44.973Z,148.00
2018-07-26T07:35:45.020Z,144.00
2018-07-26T07:36:45.042Z,144.00
2018-07-26T07:37:45.063Z,148.00
2018-07-26T07:38:45.102Z,148.00
2018-07-26T07:39:45.137Z,144.00
2018-07-26T07:40:45.167Z,144.00
2018-07-26T07:41:45.233Z,148.00
2018-07-26T07:43:45.242Z,144.00
2018-07-26T07:44:45.285Z,144.00
2018-07-26T07:45:45.389Z,148.00
2018-07-26T07:46:45.358Z,148.00
2018-07-26T07:47:45.423Z,156.00
2018-07-26T07:48:45.393Z,156.00
2018-07-26T07:49:45.420Z,160.00
2018-07-26T07:50:45.453Z,164.00
2018-07-26T07:51:45.497Z,168.00
2018-07-26T07:52:45.528Z,192.00
2018-07-26T07:53:45.539Z,208.00
2018-07-26T07:54:45.570Z,204.00
2018-07-26T07:55:45.599Z,208.00
2018-07-26T07:56:45.625Z,196.00
2018-07-26T07:57:45.660Z,264.00
2018-07-26T07:58:45.690Z,268.00
2018-07-26T07:59:45.787Z,276.00
2018-07-26T08:00:45.755Z,260.00
2018-07-26T08:01:45.787Z,268.00
2018-07-26T08:02:45.822Z,244.00
2018-07-26T08:03:45.838Z,256.00
2018-07-26T08:04:45.876Z,264.00
2018-07-26T08:05:45.902Z,256.00
2018-07-26T08:06:45.970Z,268.00
2018-07-26T08:07:45.960Z,276.00
2018-07-26T08:08:45.983Z,248.00
2018-07-26T08:09:46.032Z,292.00
2018-07-26T08:10:46.048Z,304.00
2018-07-26T08:11:46.083Z,248.00
2018-07-26T08:12:46.234Z,248.00
2018-07-26T08:13:46.145Z,236.00
2018-07-26T08:14:46.176Z,208.00
2018-07-26T08:15:46.196Z,208.00
2018-07-26T08:16:46.230Z,192.00
2018-07-26T08:17:46.270Z,184.00
2018-07-26T08:18:46.283Z,240.00
2018-07-26T08:19:46.318Z,176.00
2018-07-26T08:20:46.351Z,176.00
2018-07-26T08:21:46.376Z,212.00
2018-07-26T08:22:46.420Z,204.00
2018-07-26T08:23:46.443Z,188.00
2018-07-26T08:24:46.485Z,184.00
2018-07-26T08:25:46.505Z,188.00
2018-07-26T08:27:46.567Z,180.00
2018-07-26T08:28:46.593Z,180.00
2018-07-26T08:29:46.622Z,196.00
2018-07-26T08:30:46.713Z,180.00
2018-07-26T08:31:46.684Z,180.00
2018-07-26T08:32:46.726Z,184.00
2018-07-26T08:33:46.754Z,188.00
2018-07-26T08:34:46.772Z,176.00
2018-07-26T08:35:46.804Z,188.00
2018-07-26T08:36:46.836Z,180.00
2018-07-26T08:37:46.862Z,172.00
2018-07-26T08:38:46.909Z,188.00
2018-07-26T08:39:46.926Z,180.00
2018-07-26T08:40:46.960Z,172.00
2018-07-26T08:41:46.986Z,172.00
2018-07-26T08:42:47.022Z,172.00
2018-07-26T08:44:47.074Z,168.00
2018-07-26T08:45:47.113Z,172.00
2018-07-26T08:46:47.148Z,172.00
2018-07-26T08:47:47.179Z,172.00
2018-07-26T08:48:47.202Z,172.00
2018-07-26T08:49:47.227Z,172.00
2018-07-26T08:50:47.262Z,172.00
2018-07-26T08:51:47.293Z,172.00
2018-07-26T08:52:47.326Z,176.00
2018-07-26T08:53:47.347Z,176.00
2018-07-26T08:54:47.380Z,176.00
2018-07-26T08:55:47.417Z,176.00
2018-07-26T08:56:47.468Z,180.00
2018-07-26T08:57:47.479Z,184.00
2018-07-26T08:58:47.511Z,184.00
2018-07-26T08:59:47.540Z,184.00
2018-07-26T09:00:47.561Z,184.00
2018-07-26T09:01:47.597Z,180.00
2018-07-26T09:02:47.661Z,184.00
2018-07-26T09:03:47.662Z,184.00
2018-07-26T09:04:47.690Z,184.00
2018-07-26T09:05:47.719Z,184.00
2018-07-26T09:06:47.746Z,184.00
2018-07-26T09:07:47.777Z,184.00
2018-07-26T09:08:47.811Z,184.00
2018-07-26T09:09:47.896Z,184.00
2018-07-26T09:10:47.891Z,188.00
2018-07-26T09:11:47.909Z,184.00
2018-07-26T09:12:47.931Z,188.00
2018-07-26T09:13:48.005Z,180.00
2018-07-26T09:14:48.006Z,192.00
2018-07-26T09:15:48.028Z,184.00
2018-07-26T09:16:48.060Z,184.00
2018-07-26T09:17:48.097Z,184.00
2018-07-26T09:18:48.119Z,184.00
2018-07-26T09:19:48.235Z,184.00
2018-07-26T09:20:48.188Z,184.00
2018-07-26T09:21:48.212Z,180.00
2018-07-26T09:22:48.247Z,184.00
2018-07-26T09:23:48.272Z,184.00
2018-07-26T09:24:48.311Z,180.00
2018-07-26T09:25:48.341Z,184.00
2018-07-26T09:26:48.366Z,184.00
2018-07-26T09:27:48.399Z,188.00
2018-07-26T09:28:48.492Z,184.00
2018-07-26T09:29:48.459Z,188.00
2018-07-26T09:30:48.499Z,188.00
2018-07-26T09:31:48.520Z,188.00
2018-07-26T09:32:48.570Z,192.00
2018-07-26T09:33:48.584Z,192.00
2018-07-26T09:34:48.613Z,192.00
2018-07-26T09:35:48.658Z,192.00
2018-07-26T09:36:48.676Z,192.00
2018-07-26T09:37:48.711Z,188.00
2018-07-26T09:38:48.743Z,196.00
2018-07-26T09:39:48.773Z,192.00
2018-07-26T09:40:48.804Z,196.00
2018-07-26T09:41:48.829Z,196.00
2018-07-26T09:42:48.893Z,196.00
2018-07-26T09:43:48.894Z,204.00
2018-07-26T09:44:48.928Z,204.00
2018-07-26T09:45:48.973Z,204.00
2018-07-26T09:46:48.988Z,208.00
2018-07-26T09:47:49.031Z,212.00
2018-07-26T09:48:49.062Z,216.00
2018-07-26T09:49:49.141Z,224.00
2018-07-26T09:50:49.115Z,220.00
2018-07-26T09:51:49.149Z,220.00
2018-07-26T09:52:49.199Z,224.00
2018-07-26T09:53:49.217Z,228.00
2018-07-26T09:54:49.262Z,224.00
2018-07-26T09:55:49.277Z,228.00
2018-07-26T09:56:49.314Z,220.00
2018-07-26T09:57:49.341Z,228.00
2018-07-26T09:58:49.373Z,224.00
2018-07-26T09:59:49.396Z,216.00
2018-07-26T10:00:49.432Z,220.00
2018-07-26T10:01:49.476Z,220.00
2018-07-26T10:02:49.493Z,220.00
2018-07-26T10:03:49.534Z,224.00
2018-07-26T10:04:49.552Z,228.00
2018-07-26T10:05:49.592Z,224.00
2018-07-26T10:06:49.655Z,228.00
2018-07-26T10:07:49.650Z,232.00
2018-07-26T10:08:49.680Z,224.00
2018-07-26T10:09:49.728Z,228.00
2018-07-26T10:10:49.748Z,228.00
2018-07-26T10:11:49.792Z,228.00
2018-07-26T10:12:49.807Z,232.00
2018-07-26T10:13:49.845Z,224.00
2018-07-26T10:14:49.876Z,220.00
2018-07-26T10:15:49.960Z,224.00
2018-07-26T10:16:49.933Z,220.00
2018-07-26T10:17:49.984Z,220.00
2018-07-26T10:18:49.995Z,216.00
2018-07-26T10:19:50.043Z,216.00
2018-07-26T10:20:50.071Z,216.00
2018-07-26T10:22:50.124Z,220.00
2018-07-26T10:23:50.162Z,224.00
2018-07-26T10:24:50.192Z,224.00
2018-07-26T10:25:50.229Z,220.00
2018-07-26T10:26:50.247Z,220.00
2018-07-26T10:27:50.313Z,216.00
2018-07-26T10:28:50.309Z,216.00
2018-07-26T10:29:50.340Z,216.00
2018-07-26T10:30:50.379Z,216.00
2018-07-26T10:31:50.432Z,216.00
2018-07-26T10:32:50.437Z,216.00
2018-07-26T10:33:50.478Z,216.00
2018-07-26T10:34:50.499Z,212.00
2018-07-26T10:35:50.535Z,212.00
2018-07-26T10:36:50.581Z,216.00
2018-07-26T10:37:50.597Z,216.00
2018-07-26T10:38:50.632Z,216.00
2018-07-26T10:39:50.673Z,212.00
2018-07-26T10:40:50.690Z,216.00
2018-07-26T10:41:50.731Z,216.00
2018-07-26T10:42:50.759Z,220.00
2018-07-26T10:43:50.797Z,228.00
2018-07-26T10:44:50.831Z,224.00
2018-07-26T10:45:50.852Z,228.00
2018-07-26T10:46:50.904Z,228.00
2018-07-26T10:47:50.919Z,228.00
2018-07-26T10:48:50.950Z,232.00
2018-07-26T10:49:51.049Z,232.00
2018-07-26T10:50:51.006Z,236.00
2018-07-26T10:51:51.055Z,236.00
2018-07-26T10:52:51.075Z,236.00
2018-07-26T10:53:51.113Z,236.00
2018-07-26T10:54:51.181Z,236.00
2018-07-26T10:55:51.175Z,240.00
2018-07-26T10:56:51.204Z,240.00
2018-07-26T10:57:51.241Z,240.00
2018-07-26T10:58:51.268Z,240.00
2018-07-26T10:59:51.306Z,244.00
2018-07-26T11:00:51.336Z,244.00
2018-07-26T11:01:51.366Z,240.00
2018-07-26T11:02:51.414Z,244.00
2018-07-26T11:03:51.480Z,248.00
2018-07-26T11:04:51.469Z,244.00
2018-07-26T11:05:51.496Z,244.00
2018-07-26T11:06:51.537Z,248.00
2018-07-26T11:07:51.578Z,252.00
2018-07-26T11:08:51.594Z,252.00
2018-07-26T11:09:51.626Z,256.00
2018-07-26T11:10:51.677Z,252.00
2018-07-26T11:11:51.697Z,260.00
2018-07-26T11:12:51.728Z,260.00
2018-07-26T11:13:51.754Z,264.00
2018-07-26T11:14:51.785Z,268.00
2018-07-26T11:15:51.816Z,268.00
2018-07-26T11:16:51.859Z,276.00
2018-07-26T11:18:52.005Z,288.00
2018-07-26T11:19:51.948Z,296.00
2018-07-26T11:20:51.988Z,292.00
2018-07-26T11:21:52.017Z,300.00
2018-07-26T11:22:52.043Z,300.00
2018-07-26T11:23:52.099Z,308.00
2018-07-26T11:24:52.122Z,316.00
2018-07-26T11:25:52.147Z,328.00
2018-07-26T11:26:52.178Z,344.00
2018-07-26T11:27:52.209Z,340.00
2018-07-26T11:28:52.241Z,344.00
2018-07-26T11:30:52.314Z,388.00
2018-07-26T11:32:52.397Z,424.00
2018-07-26T11:33:52.407Z,444.00
2018-07-26T11:34:52.439Z,456.00
2018-07-26T11:35:52.474Z,472.00
2018-07-26T11:36:52.514Z,492.00
2018-07-26T11:37:52.540Z,516.00
2018-07-26T11:38:52.566Z,544.00
2018-07-26T11:39:52.598Z,560.00
2018-07-26T11:40:52.638Z,576.00
2018-07-26T11:41:52.678Z,596.00
2018-07-26T11:42:52.723Z,616.00
2018-07-26T11:43:52.759Z,632.00
2018-07-26T11:44:52.775Z,652.00
2018-07-26T11:45:52.805Z,676.00
2018-07-26T11:46:52.833Z,692.00
2018-07-26T11:47:52.868Z,716.00
2018-07-26T11:48:52.896Z,736.00
2018-07-26T11:49:52.933Z,760.00
2018-07-26T11:51:53.001Z,788.00
2018-07-26T11:52:53.096Z,808.00
2018-07-26T11:53:53.068Z,832.00
2018-07-26T11:54:53.100Z,840.00
2018-07-26T11:55:53.131Z,868.00
2018-07-26T11:56:53.174Z,872.00
2018-07-26T11:57:53.204Z,884.00
2018-07-26T11:58:53.234Z,900.00
2018-07-26T11:59:53.272Z,908.00
2018-07-26T12:00:53.303Z,908.00
2018-07-26T12:01:53.368Z,908.00
2018-07-26T12:02:53.371Z,900.00
2018-07-26T12:03:53.400Z,888.00
2018-07-26T12:04:53.423Z,880.00
2018-07-26T12:05:53.468Z,884.00
2018-07-26T12:06:53.504Z,856.00
2018-07-26T12:07:53.541Z,828.00
2018-07-26T12:08:53.561Z,832.00
2018-07-26T12:09:53.603Z,824.00
2018-07-26T12:10:53.644Z,756.00
2018-07-26T12:11:53.675Z,728.00
2018-07-26T12:12:53.717Z,700.00
2018-07-26T12:13:53.740Z,668.00
2018-07-26T12:14:53.771Z,648.00
2018-07-26T12:16:53.866Z,592.00
2018-07-26T12:17:53.875Z,568.00
2018-07-26T12:18:53.907Z,556.00
2018-07-26T12:20:53.975Z,620.00
2018-07-26T12:21:54.014Z,528.00
2018-07-26T12:22:54.043Z,512.00
2018-07-26T12:23:54.071Z,432.00
2018-07-26T12:24:54.107Z,412.00
2018-07-26T12:25:54.149Z,396.00
2018-07-26T12:26:54.257Z,380.00
2018-07-26T12:27:54.222Z,520.00
2018-07-26T12:28:54.253Z,432.00
2018-07-26T12:29:54.282Z,456.00
2018-07-26T12:30:54.402Z,468.00
2018-07-26T12:31:54.359Z,460.00
2018-07-26T12:32:54.393Z,480.00
2018-07-26T12:33:54.435Z,428.00
2018-07-26T12:34:54.455Z,448.00
2018-07-26T12:35:54.561Z,444.00
2018-07-26T12:36:54.520Z,444.00
2018-07-26T12:37:54.558Z,476.00
2018-07-26T12:38:54.589Z,468.00
2018-07-26T12:39:54.627Z,460.00
2018-07-26T12:40:54.654Z,472.00
2018-07-26T12:41:54.702Z,472.00
2018-07-26T12:42:54.725Z,444.00
2018-07-26T12:43:54.765Z,440.00
2018-07-26T12:44:54.802Z,436.00
2018-07-26T12:45:54.846Z,432.00
2018-07-26T12:47:55.002Z,416.00
2018-07-26T12:48:54.932Z,404.00
2018-07-26T12:49:54.969Z,400.00
2018-07-26T12:50:55.006Z,224.00
2018-07-26T12:51:55.034Z,384.00
2018-07-26T12:52:55.070Z,404.00
2018-07-26T12:53:55.108Z,420.00
2018-07-26T12:54:55.179Z,428.00
2018-07-26T12:55:55.178Z,472.00
2018-07-26T12:56:55.216Z,456.00
2018-07-26T12:57:55.241Z,472.00
2018-07-26T12:58:55.286Z,400.00
2018-07-26T12:59:55.315Z,396.00
2018-07-26T13:00:55.375Z,140.00